Time;durP1;ratioP1;P1;durP2;ratioP2;P2;SDS_P1;SDS_P2;PMS_P1;PMS_P2;Temp;Humidity;BMP_temperature;BMP_pressure;BME280_temperature;BME280_humidity;BME280_pressure;Samples;Min_cycle;Max_cycle;Signal;HPM_P1;HPM_P2
2022/10/08 00:00:47;;;;;;;19.82;11.50;;;;;;;13.94;82.58;99418.27;1739682;82;21481;-49
2022/10/08 00:03:14;;;;;;;17.02;10.28;;;;;;;13.92;82.41;99419.68;1739586;81;20964;-49
2022/10/08 00:05:41;;;;;;;16.23;10.45;;;;;;;13.90;82.65;99428.64;1739754;82;20999;-45
2022/10/08 00:08:09;;;;;;;18.73;11.43;;;;;;;13.86;82.48;99420.55;1739717;82;21003;-48
2022/10/08 00:10:36;;;;;;;25.08;10.90;;;;;;;13.81;82.79;99407.66;1739598;81;21494;-50
2022/10/08 00:13:03;;;;;;;21.05;10.95;;;;;;;13.79;82.62;99419.66;1739780;82;20984;-44
2022/10/08 00:15:31;;;;;;;19.10;10.68;;;;;;;13.73;83.64;99412.11;1739770;82;21480;-42
2022/10/08 00:17:57;;;;;;;16.00;10.72;;;;;;;13.71;83.51;99407.41;1739575;82;21671;-47
2022/10/08 00:20:23;;;;;;;16.10;10.72;;;;;;;13.69;83.64;99402.70;1739706;82;21000;-48
2022/10/08 00:22:49;;;;;;;19.10;11.12;;;;;;;13.66;83.70;99398.97;1739588;82;20960;-49
2022/10/08 00:25:14;;;;;;;16.93;10.38;;;;;;;13.64;84.10;99402.16;1739627;82;20997;-48
2022/10/08 00:27:41;;;;;;;16.65;10.70;;;;;;;13.61;84.44;99399.26;1739622;82;20991;-49
2022/10/08 00:30:08;;;;;;;17.75;10.98;;;;;;;13.61;83.85;99398.42;1739632;82;20999;-44
2022/10/08 00:32:34;;;;;;;14.35;10.68;;;;;;;13.58;84.09;99394.65;1739703;82;21492;-46
2022/10/08 00:34:59;;;;;;;16.82;11.05;;;;;;;13.57;84.27;99395.58;1739666;82;20991;-44
2022/10/08 00:37:25;;;;;;;20.88;11.55;;;;;;;13.51;85.15;99383.63;1739614;82;20996;-54
2022/10/08 00:39:51;;;;;;;16.12;10.90;;;;;;;13.52;84.68;99385.82;1739595;82;21026;-42
2022/10/08 00:42:17;;;;;;;19.67;11.70;;;;;;;13.53;84.54;99384.37;1739557;82;20987;-52
2022/10/08 00:44:57;;;;;;;18.07;10.93;;;;;;;13.52;84.50;99376.09;1739599;82;20964;-50
2022/10/08 00:47:43;;;;;;;19.05;10.40;;;;;;;13.52;84.25;99383.17;1742496;81;21026;-42
2022/10/08 00:50:22;;;;;;;18.80;11.12;;;;;;;13.50;84.82;99372.70;1753922;81;20987;-46
2022/10/08 00:52:55;;;;;;;17.87;11.68;;;;;;;13.48;85.16;99375.92;1753640;82;21500;-51
2022/10/08 00:55:26;;;;;;;18.42;11.48;;;;;;;13.46;85.75;99369.03;1753365;82;20990;-51
2022/10/08 00:57:51;;;;;;;20.97;11.85;;;;;;;13.45;84.92;99370.83;1753352;82;20983;-51
2022/10/08 01:00:24;;;;;;;15.95;10.90;;;;;;;13.43;85.84;99368.77;1753668;82;21492;-40
2022/10/08 01:02:51;;;;;;;17.20;11.60;;;;;;;13.46;85.49;99366.39;1753544;81;21504;-49
2022/10/08 01:05:31;;;;;;;18.85;11.35;;;;;;;13.42;86.07;99367.06;1753771;81;21019;-41
2022/10/08 01:08:13;;;;;;;18.07;12.00;;;;;;;13.40;86.17;99365.00;1753295;80;20975;-48
2022/10/08 01:11:08;;;;;;;17.73;11.90;;;;;;;13.41;86.03;99359.63;1753594;82;21453;-48
2022/10/08 01:13:42;;;;;;;21.87;12.20;;;;;;;13.41;86.21;99352.18;1753643;82;20956;-46
2022/10/08 01:16:47;;;;;;;16.87;11.63;;;;;;;13.41;86.26;99345.09;1753507;81;21466;-50
2022/10/08 01:19:53;;;;;;;19.35;11.97;;;;;;;13.42;85.77;99342.84;1752720;81;20951;-40
2022/10/08 01:22:42;;;;;;;18.20;11.60;;;;;;;13.44;86.42;99342.26;1753733;81;20983;-47
2022/10/08 01:25:50;;;;;;;19.98;12.30;;;;;;;13.43;86.81;99341.88;1753588;82;20979;-49
2022/10/08 01:28:57;;;;;;;23.65;12.10;;;;;;;13.46;86.85;99338.17;1753709;80;20983;-45
2022/10/08 01:31:29;;;;;;;18.90;12.23;;;;;;;13.49;87.16;99338.45;1753508;82;21011;-53
2022/10/08 01:34:16;;;;;;;22.15;12.90;;;;;;;13.50;87.38;99334.39;1753596;82;20991;-42
2022/10/08 01:36:46;;;;;;;17.50;11.55;;;;;;;13.51;87.16;99337.39;1753824;82;21507;-53
2022/10/08 01:39:16;;;;;;;19.55;11.38;;;;;;;13.55;86.95;99335.39;1753561;82;21022;-54
2022/10/08 01:41:50;;;;;;;16.95;11.73;;;;;;;13.55;87.23;99327.02;1725926;82;20944;-46
2022/10/08 01:44:31;;;;;;;24.07;11.35;;;;;;;13.58;86.96;99328.59;1753590;82;20995;-46
2022/10/08 01:47:00;;;;;;;21.40;12.68;;;;;;;13.58;87.45;99325.95;1753623;82;21597;-45
2022/10/08 01:49:32;;;;;;;28.55;16.85;;;;;;;13.59;87.35;99326.34;1740095;81;21497;-43
2022/10/08 01:52:09;;;;;;;22.55;12.53;;;;;;;13.58;88.15;99324.63;1739588;81;21019;-45
2022/10/08 01:54:38;;;;;;;20.77;12.20;;;;;;;13.61;86.90;99323.95;1739699;82;21171;-46
2022/10/08 01:57:08;;;;;;;19.10;12.63;;;;;;;13.59;87.33;99312.64;1739381;81;21011;-42
2022/10/08 01:59:45;;;;;;;17.42;12.00;;;;;;;13.61;87.03;99319.98;1739503;82;20995;-41
2022/10/08 02:02:21;;;;;;;19.25;11.80;;;;;;;13.63;87.29;99323.84;1739531;81;20996;-43
2022/10/08 02:04:50;;;;;;;18.15;11.22;;;;;;;13.64;87.06;99317.59;1739567;82;20995;-50
2022/10/08 02:07:20;;;;;;;21.75;12.07;;;;;;;13.66;86.69;99319.69;1739588;82;20976;-43
2022/10/08 02:09:54;;;;;;;22.10;12.10;;;;;;;13.65;87.57;99314.50;1739111;82;21020;-46
2022/10/08 02:12:21;;;;;;;24.77;12.07;;;;;;;13.64;87.89;99314.95;1738232;82;20956;-48
2022/10/08 02:14:52;;;;;;;23.85;12.47;;;;;;;13.66;87.87;99313.09;1739705;82;21508;-47
2022/10/08 02:17:52;;;;;;;21.37;11.68;;;;;;;13.71;87.49;99311.44;1739606;82;20960;-49
2022/10/08 02:20:28;;;;;;;20.37;11.75;;;;;;;13.70;87.45;99309.73;1739338;82;21537;-51
2022/10/08 02:23:25;;;;;;;21.02;12.23;;;;;;;13.69;88.17;99310.21;1739582;82;20973;-43
2022/10/08 02:26:01;;;;;;;20.68;11.70;;;;;;;13.72;88.00;99309.17;1739636;82;20968;-47
2022/10/08 02:28:52;;;;;;;14.33;11.40;;;;;;;13.73;87.71;99302.44;1739558;82;20984;-49
2022/10/08 02:31:51;;;;;;;24.05;12.00;;;;;;;13.73;87.13;99301.12;1739154;82;20960;-48
2022/10/08 02:34:37;;;;;;;21.57;11.93;;;;;;;13.76;87.44;99302.23;1739496;82;20973;-51
2022/10/08 02:37:23;;;;;;;19.00;11.93;;;;;;;13.79;87.06;99299.87;1739537;82;21493;-48
2022/10/08 02:39:58;;;;;;;18.80;12.00;;;;;;;13.77;87.56;99302.63;1718626;82;20984;-48
2022/10/08 02:42:26;;;;;;;20.90;12.37;;;;;;;13.78;87.47;99300.81;1725305;79;21082;-42
2022/10/08 02:45:13;;;;;;;18.62;11.78;;;;;;;13.78;87.26;99309.58;1722485;83;21090;-46
2022/10/08 02:47:41;;;;;;;18.23;11.40;;;;;;;13.81;87.03;99305.42;1721896;83;21010;-42
2022/10/08 02:50:15;;;;;;;21.30;13.03;;;;;;;13.82;87.19;99305.80;1722159;83;21447;-49
2022/10/08 02:52:44;;;;;;;20.02;11.43;;;;;;;13.81;87.53;99296.16;1722086;83;21005;-49
2022/10/08 02:55:27;;;;;;;19.27;12.33;;;;;;;13.83;87.08;99294.27;1722156;83;21503;-41
2022/10/08 02:58:04;;;;;;;27.85;12.82;;;;;;;13.80;88.20;99290.50;1718422;83;21026;-49
2022/10/08 03:00:44;;;;;;;22.15;12.47;;;;;;;13.81;88.44;99282.11;1722255;83;21006;-46
2022/10/08 03:03:14;;;;;;;23.85;12.15;;;;;;;13.83;87.54;99288.14;1722085;83;21487;-46
2022/10/08 03:05:41;;;;;;;16.45;11.55;;;;;;;13.86;88.05;99293.67;1722137;83;21026;-48
2022/10/08 03:08:11;;;;;;;20.35;11.50;;;;;;;13.85;87.82;99292.00;1722127;83;20999;-52
2022/10/08 03:10:40;;;;;;;19.05;12.20;;;;;;;13.87;87.58;99295.38;1722322;83;21614;-45
2022/10/08 03:13:07;;;;;;;17.50;11.88;;;;;;;13.83;88.53;99293.42;1722114;83;21022;-51
2022/10/08 03:15:35;;;;;;;;;;;;;;;13.81;88.49;99288.23;1724686;83;21033;-53
2022/10/08 03:18:06;;;;;;;22.93;13.32;;;;;;;13.79;88.62;99288.83;1722236;83;20429;-44
2022/10/08 03:20:32;;;;;;;20.45;12.55;;;;;;;13.80;88.18;99287.02;1722123;83;21003;-46
2022/10/08 03:23:00;;;;;;;17.98;11.33;;;;;;;13.79;88.19;99287.98;1722127;83;20994;-48
2022/10/08 03:25:26;;;;;;;21.02;12.47;;;;;;;13.80;88.09;99290.98;1722205;83;20959;-52
2022/10/08 03:27:52;;;;;;;17.20;12.33;;;;;;;13.79;87.93;99287.50;1722128;83;20999;-50
2022/10/08 03:30:18;;;;;;;28.10;12.05;;;;;;;13.80;87.91;99293.14;1722196;83;21578;-42
2022/10/08 03:32:43;;;;;;;19.57;12.35;;;;;;;13.80;87.77;99289.66;1722230;83;21551;-51
2022/10/08 03:35:09;;;;;;;30.70;13.10;;;;;;;13.80;88.24;99294.46;1722139;82;21034;-51
2022/10/08 03:37:35;;;;;;;23.02;12.78;;;;;;;13.81;88.16;99289.56;1722163;82;21027;-44
2022/10/08 03:40:01;;;;;;;17.60;11.60;;;;;;;13.78;89.20;99295.05;1722155;83;20990;-40
2022/10/08 03:42:27;;;;;;;20.65;13.10;;;;;;;13.78;89.10;99286.28;1722003;82;21097;-50
2022/10/08 03:44:53;;;;;;;19.27;12.68;;;;;;;13.77;89.05;99281.48;1722074;83;21006;-44
2022/10/08 03:47:19;;;;;;;20.62;11.85;;;;;;;13.79;88.93;99286.66;1722275;83;20991;-43
2022/10/08 03:49:45;;;;;;;23.05;12.35;;;;;;;13.79;88.59;99290.14;1722321;83;20963;-51
2022/10/08 03:52:10;;;;;;;20.37;12.70;;;;;;;13.81;88.46;99284.76;1722319;83;20995;-47
2022/10/08 03:54:36;;;;;;;18.65;12.23;;;;;;;13.82;88.16;99283.34;1722252;83;20991;-45
2022/10/08 03:57:02;;;;;;;19.35;11.88;;;;;;;13.85;88.65;99280.11;1722279;82;20984;-49
2022/10/08 03:59:28;;;;;;;21.82;12.25;;;;;;;13.83;88.37;99288.97;1722317;83;20991;-49
2022/10/08 04:01:54;;;;;;;20.90;12.58;;;;;;;13.83;89.10;99285.01;1722221;83;21034;-56
2022/10/08 04:04:20;;;;;;;21.30;12.50;;;;;;;13.81;89.38;99285.59;1721998;83;21328;-44
2022/10/08 04:06:45;;;;;;;25.90;12.28;;;;;;;13.83;89.06;99279.72;1721736;83;21536;-46
2022/10/08 04:09:11;;;;;;;25.85;13.38;;;;;;;13.84;89.16;99283.20;1722200;83;21524;-47
2022/10/08 04:11:37;;;;;;;18.20;12.20;;;;;;;13.86;88.96;99287.06;1722309;83;20975;-46
2022/10/08 04:14:03;;;;;;;21.07;12.50;;;;;;;13.88;89.06;99290.45;1722241;83;21034;-45
2022/10/08 04:16:29;;;;;;;18.82;12.30;;;;;;;13.90;88.73;99286.77;1722262;83;21022;-55
2022/10/08 04:18:54;;;;;;;20.48;12.25;;;;;;;13.90;89.39;99288.53;1722251;82;21495;-52
2022/10/08 04:21:20;;;;;;;16.70;11.43;;;;;;;13.93;88.97;99284.37;1722227;83;21476;-46
2022/10/08 04:23:48;;;;;;;21.07;12.40;;;;;;;13.93;88.36;99287.85;1722158;83;21003;-51
2022/10/08 04:26:15;;;;;;;18.50;12.68;;;;;;;13.95;88.19;99285.97;1722049;83;21030;-51
2022/10/08 04:28:46;;;;;;;19.55;11.90;;;;;;;13.98;88.20;99288.87;1722219;83;21429;-46
2022/10/08 04:31:20;;;;;;;17.25;11.83;;;;;;;13.97;88.65;99285.39;1722279;83;21031;-44
2022/10/08 04:33:47;;;;;;;35.30;12.35;;;;;;;13.99;88.18;99277.35;1722203;83;21554;-52
2022/10/08 04:36:16;;;;;;;19.63;12.97;;;;;;;13.98;88.46;99281.77;1722442;83;20991;-50
2022/10/08 04:38:43;;;;;;;19.57;12.90;;;;;;;13.98;88.59;99280.45;1722143;83;21036;-49
2022/10/08 04:41:17;;;;;;;;;;;;;;;13.98;88.79;99286.22;1724829;83;20999;-46
2022/10/08 04:43:44;;;;;;;16.15;11.97;;;;;;;13.97;89.53;99285.84;1722122;82;20164;-52
2022/10/08 04:46:14;;;;;;;20.80;12.23;;;;;;;13.96;88.96;99281.52;1722281;83;21810;-50
2022/10/08 04:48:47;;;;;;;22.22;12.70;;;;;;;13.96;88.80;99278.39;1722194;83;21502;-45
2022/10/08 04:51:14;;;;;;;28.47;12.43;;;;;;;13.98;88.72;99280.45;1721808;83;21456;-47
2022/10/08 04:53:39;;;;;;;20.67;13.30;;;;;;;13.97;89.00;99272.62;1722606;83;20959;-44
2022/10/08 04:56:18;;;;;;;18.98;11.80;;;;;;;14.00;88.56;99289.61;1722165;83;20997;-52
2022/10/08 04:58:44;;;;;;;19.52;12.35;;;;;;;14.01;88.55;99280.25;1722161;83;21626;-49
2022/10/08 05:01:14;;;;;;;21.95;11.75;;;;;;;14.01;88.82;99284.70;1722226;83;21027;-49
2022/10/08 05:03:46;;;;;;;22.90;12.03;;;;;;;14.00;89.01;99287.80;1722126;83;20991;-43
2022/10/08 05:06:18;;;;;;;18.05;12.20;;;;;;;14.03;88.59;99277.98;1721644;82;20991;-48
2022/10/08 05:08:42;;;;;;;17.70;11.93;;;;;;;14.01;88.88;99288.66;1721866;82;20998;-54
2022/10/08 05:11:08;;;;;;;20.37;13.38;;;;;;;14.02;88.50;99285.05;1722223;83;21046;-46
2022/10/08 05:13:34;;;;;;;22.13;12.98;;;;;;;14.03;88.62;99288.56;1722461;83;21471;-46
2022/10/08 05:16:07;;;;;;;25.43;12.23;;;;;;;14.05;88.65;99282.20;1722138;83;21003;-47
2022/10/08 05:18:34;;;;;;;22.48;13.00;;;;;;;14.07;88.85;99272.84;1722098;83;20998;-46
2022/10/08 05:21:12;;;;;;;18.48;11.70;;;;;;;14.11;88.56;99275.64;1722269;82;21038;-48
2022/10/08 05:23:39;;;;;;;20.08;11.55;;;;;;;14.12;88.55;99272.05;1722083;83;21006;-46
2022/10/08 05:26:20;;;;;;;16.05;11.63;;;;;;;14.09;88.69;99264.33;1722348;83;21476;-41
2022/10/08 05:28:47;;;;;;;19.80;11.95;;;;;;;14.11;88.54;99280.44;1721199;83;21551;-43
2022/10/08 05:31:17;;;;;;;18.87;12.20;;;;;;;14.10;88.72;99271.28;1722317;83;21864;-46
2022/10/08 05:33:43;;;;;;;18.82;11.85;;;;;;;14.10;88.46;99273.48;1722006;83;20999;-49
2022/10/08 05:36:16;;;;;;;19.70;11.93;;;;;;;14.13;88.31;99278.53;1721040;83;21101;-50
2022/10/08 05:38:42;;;;;;;26.55;11.75;;;;;;;14.16;88.35;99277.00;1711505;83;21022;-49
2022/10/08 05:41:13;;;;;;;21.35;11.83;;;;;;;14.16;88.23;99278.81;1721733;83;21010;-45
2022/10/08 05:43:39;;;;;;;18.15;11.55;;;;;;;14.17;88.39;99279.16;1721660;82;21499;-45
2022/10/08 05:46:06;;;;;;;17.80;11.73;;;;;;;14.18;88.21;99286.16;1721815;82;21510;-44
2022/10/08 05:48:32;;;;;;;20.40;11.35;;;;;;;14.19;88.19;99280.77;1721882;82;20963;-45
2022/10/08 05:51:04;;;;;;;17.92;10.78;;;;;;;14.19;88.25;99290.50;1721788;83;20991;-47
2022/10/08 05:53:30;;;;;;;17.75;11.28;;;;;;;14.21;88.06;99279.34;1722010;83;20994;-49
2022/10/08 05:56:05;;;;;;;17.25;10.63;;;;;;;14.23;88.14;99293.78;1722108;83;20995;-50
2022/10/08 05:58:33;;;;;;;18.87;10.75;;;;;;;14.21;88.14;99285.46;1722202;83;20991;-44
2022/10/08 06:01:02;;;;;;;21.62;10.80;;;;;;;14.20;88.04;99290.86;1722139;83;21471;-48
2022/10/08 06:03:28;;;;;;;14.63;10.68;;;;;;;14.19;87.90;99292.66;1722147;83;20990;-47
2022/10/08 06:05:55;;;;;;;16.80;11.75;;;;;;;14.20;88.12;99291.69;1722258;83;21512;-46
2022/10/08 06:08:21;;;;;;;19.60;10.77;;;;;;;14.21;88.08;99286.78;1722398;82;20990;-46
2022/10/08 06:10:51;;;;;;;16.20;10.93;;;;;;;14.26;87.96;99286.47;1722177;83;20990;-48
2022/10/08 06:13:19;;;;;;;21.62;12.18;;;;;;;14.29;87.81;99288.88;1722154;83;20999;-46
2022/10/08 06:15:59;;;;;;;;;;;;;;;14.29;87.54;99293.34;1724786;83;21034;-46
2022/10/08 06:18:28;;;;;;;20.23;10.58;;;;;;;14.25;88.04;99283.94;1722198;83;20156;-45
2022/10/08 06:20:54;;;;;;;18.62;10.88;;;;;;;14.31;87.41;99287.45;1722110;83;21630;-49
2022/10/08 06:23:21;;;;;;;17.45;11.10;;;;;;;14.33;87.59;99287.70;1722142;83;20963;-50
2022/10/08 06:25:47;;;;;;;17.55;10.85;;;;;;;14.33;87.71;99294.80;1722398;83;20986;-44
2022/10/08 06:28:14;;;;;;;16.37;10.45;;;;;;;14.34;87.76;99285.92;1722255;82;20975;-42
2022/10/08 06:30:41;;;;;;;19.00;10.80;;;;;;;14.35;87.55;99283.63;1722244;83;21487;-46
2022/10/08 06:33:09;;;;;;;19.42;11.20;;;;;;;14.41;87.33;99284.53;1722308;83;20998;-49
2022/10/08 06:35:36;;;;;;;17.50;9.78;;;;;;;14.46;87.26;99284.19;1721455;83;21483;-47
2022/10/08 06:38:03;;;;;;;17.77;10.05;;;;;;;14.50;86.77;99285.20;1722297;83;20994;-45
2022/10/08 06:40:38;;;;;;;14.23;10.05;;;;;;;14.53;86.69;99288.09;1722272;83;21539;-45
2022/10/08 06:43:14;;;;;;;15.93;9.88;;;;;;;14.57;86.72;99299.71;1721920;83;21026;-43
2022/10/08 06:45:42;;;;;;;16.35;10.63;;;;;;;14.59;86.75;99296.48;1721843;83;21038;-48
2022/10/08 06:48:08;;;;;;;14.15;9.53;;;;;;;14.59;86.61;99301.77;1722065;82;21535;-50
2022/10/08 06:50:35;;;;;;;18.45;10.45;;;;;;;14.62;86.60;99299.85;1722117;83;20999;-48
2022/10/08 06:53:06;;;;;;;19.15;10.63;;;;;;;14.59;86.76;99292.50;1722274;83;20998;-43
2022/10/08 06:55:33;;;;;;;16.90;10.40;;;;;;;14.70;86.21;99298.84;1722240;83;21003;-47
2022/10/08 06:58:00;;;;;;;18.77;9.87;;;;;;;14.67;86.30;99293.75;1722433;83;20998;-53
2022/10/08 07:00:26;;;;;;;15.23;10.00;;;;;;;14.67;86.30;99293.75;1722277;83;21399;-43
2022/10/08 07:02:52;;;;;;;17.80;9.60;;;;;;;14.77;85.99;99290.79;1722194;83;22188;-51
2022/10/08 07:05:18;;;;;;;12.13;9.60;;;;;;;14.78;85.62;99293.33;1722226;83;21630;-48
2022/10/08 07:07:44;;;;;;;16.32;10.00;;;;;;;14.81;85.47;99293.61;1722164;82;20963;-54
2022/10/08 07:10:10;;;;;;;37.93;14.73;;;;;;;14.81;85.65;99294.92;1722116;83;20995;-43
2022/10/08 07:12:36;;;;;;;17.95;10.85;;;;;;;14.85;85.37;99295.06;1722177;82;20999;-51
2022/10/08 07:15:02;;;;;;;17.10;9.78;;;;;;;14.81;85.65;99288.31;1722073;83;21030;-46
2022/10/08 07:17:28;;;;;;;10.58;8.98;;;;;;;14.89;85.37;99293.03;1722228;83;21027;-50
2022/10/08 07:19:55;;;;;;;18.48;10.08;;;;;;;14.93;85.22;99292.68;1722351;82;21018;-50
2022/10/08 07:22:21;;;;;;;;;;;;;;;15.00;85.16;99286.95;1724941;83;21513;-45
2022/10/08 07:24:47;;;;;;;10.88;8.83;;;;;;;15.00;84.93;99282.49;1722307;83;20140;-48
2022/10/08 07:27:14;;;;;;;13.30;8.68;;;;;;;15.05;84.95;99286.98;1722277;83;21002;-39
2022/10/08 07:29:40;;;;;;;11.60;9.35;;;;;;;15.08;84.83;99280.59;1722347;83;21022;-52
2022/10/08 07:32:05;;;;;;;14.85;10.08;;;;;;;15.10;84.63;99278.22;1722244;83;21022;-44
2022/10/08 07:34:31;;;;;;;18.20;8.85;;;;;;;15.15;84.49;99273.43;1722361;82;21002;-50
2022/10/08 07:36:57;;;;;;;16.60;9.48;;;;;;;15.16;84.33;99268.97;1722278;83;21026;-51
2022/10/08 07:39:23;;;;;;;16.35;8.85;;;;;;;15.20;84.26;99270.42;1722348;83;20999;-51
2022/10/08 07:41:49;;;;;;;14.58;9.80;;;;;;;15.16;84.08;99270.29;1722245;83;20986;-47
2022/10/08 07:44:16;;;;;;;16.85;9.50;;;;;;;15.20;84.05;99270.42;1711932;83;21579;-45
2022/10/08 07:46:46;;;;;;;18.52;9.40;;;;;;;15.24;84.04;99269.71;1709359;84;21481;-50
2022/10/08 07:49:13;;;;;;;13.18;9.58;;;;;;;15.28;83.81;99268.52;1708942;83;20984;-49
2022/10/08 07:51:40;;;;;;;;;;;;;;;15.32;83.70;99265.53;1711788;84;20991;-50
2022/10/08 07:54:07;;;;;;;18.10;9.38;;;;;;;15.35;83.86;99265.31;1709639;83;20140;-54
2022/10/08 07:56:34;;;;;;;17.40;9.13;;;;;;;15.40;83.49;99260.13;1709499;84;20990;-51
2022/10/08 07:59:01;;;;;;;13.48;9.23;;;;;;;15.33;83.45;99267.23;1709252;83;20986;-49
2022/10/08 08:01:29;;;;;;;17.98;9.65;;;;;;;15.44;83.48;99264.23;1709499;83;21023;-48
2022/10/08 08:04:01;;;;;;;14.15;9.08;;;;;;;15.48;83.19;99263.03;1709390;83;21508;-48
2022/10/08 08:06:29;;;;;;;14.03;9.35;;;;;;;15.49;83.16;99264.24;1708795;83;21018;-49
2022/10/08 08:08:56;;;;;;;19.80;9.98;;;;;;;15.52;83.03;99266.67;1709220;83;21031;-52
2022/10/08 08:11:23;;;;;;;14.07;8.90;;;;;;;15.57;82.92;99266.79;1709053;84;21505;-47
2022/10/08 08:13:49;;;;;;;;;;;;;;;15.57;82.72;99274.25;1711845;84;21022;-46
2022/10/08 08:16:19;;;;;;;12.45;9.08;;;;;;;15.60;82.96;99273.19;1709626;83;20140;-49
2022/10/08 08:18:49;;;;;;;15.78;9.73;;;;;;;15.67;82.73;99271.27;1709134;83;20968;-44
2022/10/08 08:21:27;;;;;;;16.95;9.43;;;;;;;15.76;82.65;99268.44;1709324;82;21011;-49
2022/10/08 08:23:55;;;;;;;11.55;8.70;;;;;;;15.85;82.50;99268.21;1709019;83;20994;-45
2022/10/08 08:26:28;;;;;;;15.25;8.90;;;;;;;15.90;82.21;99266.89;1708985;84;20990;-52
2022/10/08 08:28:57;;;;;;;12.93;9.38;;;;;;;15.87;82.01;99264.95;1708578;83;20968;-45
2022/10/08 08:31:27;;;;;;;18.15;9.30;;;;;;;15.93;82.02;99268.44;1709341;82;20988;-45
2022/10/08 08:33:59;;;;;;;16.37;9.00;;;;;;;16.00;81.88;99265.67;1709220;84;20999;-48
2022/10/08 08:36:29;;;;;;;18.07;9.38;;;;;;;15.97;81.29;99273.89;1709208;83;21016;-50
2022/10/08 08:38:56;;;;;;;22.25;9.10;;;;;;;16.12;81.57;99267.38;1709190;84;20999;-50
2022/10/08 08:42:01;;;;;;;10.08;8.08;;;;;;;16.17;81.10;99266.16;1709470;83;20991;-50
2022/10/08 08:44:33;;;;;;;15.20;8.77;;;;;;;16.21;80.72;99272.90;1717452;83;21031;-46
2022/10/08 08:47:04;;;;;;;17.27;9.15;;;;;;;16.26;80.30;99269.41;1719916;83;21499;-42
2022/10/08 08:49:45;;;;;;;11.57;8.58;;;;;;;16.34;80.67;99274.96;1719955;83;21007;-42
2022/10/08 08:52:15;;;;;;;14.53;8.68;;;;;;;16.43;80.43;99269.41;1719421;83;21014;-48
2022/10/08 08:54:49;;;;;;;21.48;9.38;;;;;;;16.49;80.28;99279.53;1718753;83;21761;-45
2022/10/08 08:57:37;;;;;;;14.43;8.75;;;;;;;16.51;80.02;99281.08;1718695;83;21066;-49
2022/10/08 09:00:19;;;;;;;9.90;8.15;;;;;;;16.68;80.16;99270.91;1718817;83;21022;-43
2022/10/08 09:02:59;;;;;;;9.30;7.85;;;;;;;16.82;79.12;99276.44;1719585;83;20995;-46
2022/10/08 09:05:30;;;;;;;15.48;8.75;;;;;;;16.95;78.66;99276.31;1719016;83;20994;-49
2022/10/08 09:08:18;;;;;;;10.68;8.43;;;;;;;17.07;79.22;99277.47;1719818;83;20986;-51
2022/10/08 09:10:52;;;;;;;13.30;8.45;;;;;;;17.17;78.59;99282.02;1719893;83;20983;-45
2022/10/08 09:13:30;;;;;;;13.50;8.50;;;;;;;17.24;78.06;99281.88;1719852;82;21480;-45
2022/10/08 09:15:55;;;;;;;15.75;8.80;;;;;;;17.35;78.31;99275.17;1719777;83;21038;-53
2022/10/08 09:18:22;;;;;;;15.85;8.98;;;;;;;17.36;77.60;99276.03;1719927;83;21534;-47
2022/10/08 09:20:48;;;;;;;12.87;8.60;;;;;;;17.38;77.32;99275.41;1720089;83;21030;-44
2022/10/08 09:23:21;;;;;;;17.87;9.10;;;;;;;17.37;77.27;99279.03;1719789;83;21019;-46
2022/10/08 09:26:12;;;;;;;14.25;8.63;;;;;;;17.40;77.09;99276.95;1719836;83;21492;-52
2022/10/08 09:28:48;;;;;;;15.03;8.90;;;;;;;17.41;76.66;99277.83;1719802;83;20998;-44
2022/10/08 09:31:37;;;;;;;12.30;8.68;;;;;;;17.41;76.48;99273.34;1701473;83;21000;-52
2022/10/08 09:34:16;;;;;;;19.35;9.10;;;;;;;17.39;75.69;99275.75;1719979;83;21034;-40
2022/10/08 09:37:02;;;;;;;13.15;8.68;;;;;;;17.50;76.31;99276.18;1719742;83;21002;-55
2022/10/08 09:39:34;;;;;;;18.90;8.85;;;;;;;17.54;76.08;99266.50;1719840;83;20967;-45
2022/10/08 09:42:14;;;;;;;11.53;8.25;;;;;;;17.70;75.95;99274.49;1719776;83;20972;-50
2022/10/08 09:44:56;;;;;;;13.30;8.50;;;;;;;17.80;75.81;99270.09;1725120;83;21038;-46
2022/10/08 09:47:25;;;;;;;11.28;7.78;;;;;;;17.86;75.42;99267.41;1726973;83;21006;-43
2022/10/08 09:50:21;;;;;;;14.13;8.33;;;;;;;17.88;74.83;99268.95;1726999;83;21518;-46
2022/10/08 09:52:48;;;;;;;10.55;8.40;;;;;;;17.97;74.97;99260.20;1725928;83;20963;-47
2022/10/08 09:55:25;;;;;;;12.58;7.60;;;;;;;18.10;75.12;99252.00;1727017;83;20986;-41
2022/10/08 09:57:53;;;;;;;;;;;;;;;18.14;73.71;99245.92;1729585;83;21042;-50
2022/10/08 10:00:34;;;;;;;11.95;8.28;;;;;;;18.19;72.44;99233.03;1727094;82;20132;-49
2022/10/08 10:03:02;;;;;;;18.05;7.60;;;;;;;18.25;73.50;99239.16;1722016;83;21038;-39
2022/10/08 10:05:31;;;;;;;13.78;7.47;;;;;;;18.27;73.59;99229.22;1726984;83;21002;-52
2022/10/08 10:07:57;;;;;;;15.10;7.50;;;;;;;18.25;73.16;99231.17;1726946;83;21448;-49
2022/10/08 10:10:28;;;;;;;10.95;6.97;;;;;;;18.21;73.11;99232.43;1727044;83;21002;-48
2022/10/08 10:13:05;;;;;;;11.75;6.62;;;;;;;18.18;73.10;99234.02;1727032;83;21056;-40
2022/10/08 10:15:37;;;;;;;10.40;6.47;;;;;;;18.19;72.49;99230.36;1727144;83;20999;-40
2022/10/08 10:18:14;;;;;;;15.93;6.75;;;;;;;18.17;71.69;99231.86;1727013;83;21555;-51
2022/10/08 10:20:45;;;;;;;13.75;7.05;;;;;;;18.20;71.98;99232.06;1722621;83;21483;-48
2022/10/08 10:23:25;;;;;;;12.00;7.42;;;;;;;18.22;71.80;99227.44;1726988;83;21042;-48
2022/10/08 10:26:14;;;;;;;12.45;7.22;;;;;;;18.21;71.75;99235.92;1726888;83;21501;-47
2022/10/08 10:28:56;;;;;;;17.90;7.30;;;;;;;18.19;71.54;99231.70;1726989;83;21031;-51
2022/10/08 10:31:33;;;;;;;18.73;7.25;;;;;;;18.15;71.29;99228.95;1726988;83;20994;-48
2022/10/08 10:34:07;;;;;;;12.45;7.28;;;;;;;18.17;71.77;99221.21;1727194;83;21037;-52
2022/10/08 10:36:41;;;;;;;14.65;7.67;;;;;;;18.21;72.03;99231.09;1726742;83;21038;-53
2022/10/08 10:39:28;;;;;;;13.62;7.00;;;;;;;18.21;71.64;99222.62;1725675;82;21051;-47
2022/10/08 10:42:22;;;;;;;11.70;7.00;;;;;;;18.28;71.86;99228.25;1727199;83;21041;-45
2022/10/08 10:44:58;;;;;;;20.72;8.05;;;;;;;18.37;71.68;99220.78;1726867;82;21069;-52
2022/10/08 10:47:28;;;;;;;16.62;7.95;;;;;;;18.42;71.36;99218.52;1727033;83;20995;-44
2022/10/08 10:49:54;;;;;;;10.05;7.03;;;;;;;18.54;71.52;99221.92;1726979;83;21456;-43
2022/10/08 10:52:33;;;;;;;14.47;7.30;;;;;;;18.62;71.25;99217.23;1726954;83;21002;-50
2022/10/08 10:55:22;;;;;;;15.23;7.22;;;;;;;18.69;70.71;99211.70;1727041;83;21502;-49
2022/10/08 10:58:12;;;;;;;14.63;6.50;;;;;;;18.75;70.56;99211.14;1727066;83;21030;-47
2022/10/08 11:00:58;;;;;;;14.98;7.10;;;;;;;18.80;69.56;99207.57;1727045;82;20978;-42
2022/10/08 11:03:52;;;;;;;21.40;7.27;;;;;;;19.07;69.40;99210.06;1726103;83;21006;-49
2022/10/08 11:06:44;;;;;;;11.33;6.72;;;;;;;19.07;69.40;99210.06;1726740;82;21547;-50
2022/10/08 11:09:43;;;;;;;10.60;6.97;;;;;;;19.09;68.16;99201.44;1726951;83;21030;-48
2022/10/08 11:12:32;;;;;;;12.05;7.65;;;;;;;19.22;68.84;99194.98;1726996;83;21002;-49
2022/10/08 11:15:21;;;;;;;9.03;6.83;;;;;;;19.28;68.09;99195.73;1726693;83;21036;-48
2022/10/08 11:18:02;;;;;;;13.80;7.08;;;;;;;19.35;67.76;99191.50;1726976;83;21453;-42
2022/10/08 11:20:51;;;;;;;11.15;7.62;;;;;;;19.45;67.37;99186.17;1695900;83;21460;-46
2022/10/08 11:23:46;;;;;;;9.90;6.70;;;;;;;19.63;67.61;99182.23;1726681;82;21052;-44
2022/10/08 11:26:41;;;;;;;10.25;6.83;;;;;;;19.77;67.46;99179.13;1695431;83;20966;-52
2022/10/08 11:29:35;;;;;;;11.43;6.80;;;;;;;19.80;65.59;99178.84;1726975;83;21463;-48
2022/10/08 11:32:01;;;;;;;11.95;7.37;;;;;;;19.96;65.76;99176.05;1726738;83;21025;-49
2022/10/08 11:34:36;;;;;;;15.40;7.22;;;;;;;20.01;64.79;99171.09;1727124;83;20982;-51
2022/10/08 11:37:22;;;;;;;12.98;7.33;;;;;;;20.04;65.74;99173.47;1726953;83;21618;-46
2022/10/08 11:40:05;;;;;;;17.53;6.73;;;;;;;19.98;65.35;99172.23;1727187;83;20982;-52
2022/10/08 11:42:39;;;;;;;11.75;8.18;;;;;;;20.04;65.13;99172.13;1726814;83;21185;-50
2022/10/08 11:45:25;;;;;;;12.98;7.33;;;;;;;20.28;63.49;99172.43;1726881;83;21058;-46
2022/10/08 11:47:54;;;;;;;14.75;6.85;;;;;;;20.57;64.19;99171.88;1723268;83;21006;-52